Time;durP1;ratioP1;P1;durP2;ratioP2;P2;SDS_P1;SDS_P2;PMS_P1;PMS_P2;Temp;Humidity;BMP_temperature;BMP_pressure;BME280_temperature;BME280_humidity;BME280_pressure;Samples;Min_cycle;Max_cycle;Signal;HPM_P1;HPM_P2
2022/08/21 00:01:36;;;;;;;7.50;3.78;;;;;;;;;;4937256;29;20427;-65
2022/08/21 00:04:08;;;;;;;5.60;4.18;;;;;;;;;;4937371;29;20059;-65
2022/08/21 00:06:36;;;;;;;7.72;4.50;;;;;;;;;;4936877;29;20048;-66
2022/08/21 00:09:04;;;;;;;4.60;4.05;;;;;;;;;;4936839;29;20051;-66
2022/08/21 00:11:33;;;;;;;4.50;4.07;;;;;;;;;;4937089;29;20079;-65
2022/08/21 00:13:59;;;;;;;5.47;3.97;;;;;;;;;;4936848;29;20055;-65
2022/08/21 00:16:26;;;;;;;5.85;4.82;;;;;;;;;;4937057;29;20423;-65
2022/08/21 00:18:52;;;;;;;4.90;3.97;;;;;;;;;;4936902;29;20111;-65
2022/08/21 00:21:19;;;;;;;4.60;4.20;;;;;;;;;;4936860;29;20518;-65
2022/08/21 00:23:46;;;;;;;4.53;3.92;;;;;;;;;;4936741;29;20051;-66
2022/08/21 00:26:12;;;;;;;4.80;4.07;;;;;;;;;;4936780;29;20056;-65
2022/08/21 00:28:39;;;;;;;6.10;4.40;;;;;;;;;;4936536;29;20055;-65
2022/08/21 00:31:06;;;;;;;5.68;4.13;;;;;;;;;;4936941;29;20051;-65
2022/08/21 00:33:32;;;;;;;7.00;4.68;;;;;;;;;;4936510;29;20504;-65
2022/08/21 00:35:59;;;;;;;4.50;3.88;;;;;;;;;;4936715;29;20500;-65
2022/08/21 00:38:26;;;;;;;4.18;3.80;;;;;;;;;;4936443;29;20044;-65
2022/08/21 00:40:56;;;;;;;5.25;4.38;;;;;;;;;;4936482;29;20495;-65
2022/08/21 00:43:31;;;;;;;4.82;3.60;;;;;;;;;;4936760;29;20106;-65
2022/08/21 00:45:58;;;;;;;4.38;3.97;;;;;;;;;;4936503;29;20107;-66
2022/08/21 00:48:25;;;;;;;5.80;4.32;;;;;;;;;;4936341;29;20071;-66
2022/08/21 00:51:05;;;;;;;5.28;4.07;;;;;;;;;;4935973;29;20055;-65
2022/08/21 00:53:32;;;;;;;6.57;4.07;;;;;;;;;;4936183;29;20055;-68
2022/08/21 00:55:58;;;;;;;5.38;3.90;;;;;;;;;;4903820;29;20099;-66
2022/08/21 00:58:26;;;;;;;5.20;4.63;;;;;;;;;;4903680;29;20464;-66
2022/08/21 01:00:53;;;;;;;5.55;4.18;;;;;;;;;;4919500;29;20060;-66
2022/08/21 01:03:22;;;;;;;7.60;4.57;;;;;;;;;;4936112;29;20063;-66
2022/08/21 01:05:49;;;;;;;6.65;4.70;;;;;;;;;;4919104;29;20060;-66
2022/08/21 01:08:16;;;;;;;5.22;4.10;;;;;;;;;;4935768;29;20056;-66
2022/08/21 01:10:43;;;;;;;5.05;4.57;;;;;;;;;;4919018;29;20059;-66
2022/08/21 01:13:11;;;;;;;6.13;4.28;;;;;;;;;;4919289;29;20134;-66
2022/08/21 01:15:40;;;;;;;6.32;4.30;;;;;;;;;;4918932;29;20059;-66
2022/08/21 01:18:08;;;;;;;7.07;4.78;;;;;;;;;;4918813;29;20059;-66
2022/08/21 01:20:36;;;;;;;9.50;5.35;;;;;;;;;;4935611;29;20051;-66
2022/08/21 01:23:04;;;;;;;5.65;5.15;;;;;;;;;;4935689;29;20055;-66
2022/08/21 01:25:32;;;;;;;5.18;4.68;;;;;;;;;;4936135;29;20051;-66
2022/08/21 01:28:00;;;;;;;6.38;5.00;;;;;;;;;;4919086;29;20419;-65
2022/08/21 01:30:27;;;;;;;6.40;4.35;;;;;;;;;;4918841;29;20083;-65
2022/08/21 01:32:54;;;;;;;5.10;4.57;;;;;;;;;;4935339;29;20055;-66
2022/08/21 01:35:21;;;;;;;5.32;4.80;;;;;;;;;;4918660;29;20055;-65
2022/08/21 01:37:48;;;;;;;4.93;4.30;;;;;;;;;;4935271;29;20056;-65
2022/08/21 01:40:16;;;;;;;7.68;4.70;;;;;;;;;;4935643;29;20058;-66
2022/08/21 01:42:43;;;;;;;7.13;4.70;;;;;;;;;;4935461;29;20352;-66
2022/08/21 01:45:11;;;;;;;5.45;4.90;;;;;;;;;;4935263;29;20068;-66
2022/08/21 01:47:37;;;;;;;7.28;4.57;;;;;;;;;;4935300;29;20479;-66
2022/08/21 01:50:07;;;;;;;5.60;5.03;;;;;;;;;;4935217;29;20059;-66
2022/08/21 01:52:34;;;;;;;6.20;5.07;;;;;;;;;;4935445;29;20052;-66
2022/08/21 01:55:00;;;;;;;6.72;4.78;;;;;;;;;;4935394;29;20431;-66
2022/08/21 01:57:27;;;;;;;6.60;4.93;;;;;;;;;;4945623;29;20052;-66
2022/08/21 01:59:54;;;;;;;5.55;5.05;;;;;;;;;;4936491;29;20066;-67
2022/08/21 02:02:20;;;;;;;5.47;4.47;;;;;;;;;;4934090;29;20059;-66
2022/08/21 02:04:47;;;;;;;6.55;4.78;;;;;;;;;;4934992;29;20054;-66
2022/08/21 02:07:14;;;;;;;6.05;4.72;;;;;;;;;;4935334;29;20050;-65
2022/08/21 02:09:42;;;;;;;6.72;4.28;;;;;;;;;;4934771;29;20051;-66
2022/08/21 02:12:10;;;;;;;4.85;4.40;;;;;;;;;;4935163;29;20056;-65
2022/08/21 02:14:37;;;;;;;6.35;4.93;;;;;;;;;;4935023;29;20055;-66
2022/08/21 02:17:04;;;;;;;6.22;4.30;;;;;;;;;;4934801;29;20055;-66
2022/08/21 02:19:36;;;;;;;6.70;4.20;;;;;;;;;;4934881;29;20052;-66
2022/08/21 02:22:06;;;;;;;5.32;4.10;;;;;;;;;;4935013;29;20419;-66
2022/08/21 02:24:32;;;;;;;5.35;4.30;;;;;;;;;;4934836;29;20056;-65
2022/08/21 02:26:59;;;;;;;6.18;4.30;;;;;;;;;;4934850;29;20063;-66
2022/08/21 02:29:26;;;;;;;5.45;4.13;;;;;;;;;;4934550;29;20144;-66
2022/08/21 02:31:52;;;;;;;7.25;3.85;;;;;;;;;;4934796;29;20059;-66
2022/08/21 02:34:19;;;;;;;4.88;3.65;;;;;;;;;;4934525;29;20062;-66
2022/08/21 02:36:46;;;;;;;5.22;3.90;;;;;;;;;;4934749;29;20055;-66
2022/08/21 02:39:25;;;;;;;4.10;3.80;;;;;;;;;;4934521;29;20499;-66
2022/08/21 02:41:53;;;;;;;4.78;3.50;;;;;;;;;;4934678;29;20111;-65
2022/08/21 02:44:19;;;;;;;4.32;3.80;;;;;;;;;;4934608;29;20400;-66
2022/08/21 02:46:55;;;;;;;4.10;3.80;;;;;;;;;;4934613;29;20463;-67
2022/08/21 02:49:22;;;;;;;5.55;3.90;;;;;;;;;;4934452;29;20083;-66
2022/08/21 02:51:48;;;;;;;4.80;3.55;;;;;;;;;;4934592;29;20056;-66
2022/08/21 02:54:15;;;;;;;5.40;4.15;;;;;;;;;;4934293;29;20052;-66
2022/08/21 02:56:42;;;;;;;3.80;3.50;;;;;;;;;;4934719;29;20062;-66
2022/08/21 02:59:08;;;;;;;8.02;4.05;;;;;;;;;;4934499;29;20071;-66
2022/08/21 03:01:35;;;;;;;4.25;3.75;;;;;;;;;;4934589;29;20047;-66
2022/08/21 03:04:02;;;;;;;4.85;4.03;;;;;;;;;;4934302;29;20055;-66
2022/08/21 03:06:29;;;;;;;6.90;3.83;;;;;;;;;;4934447;29;20067;-66
2022/08/21 03:08:57;;;;;;;4.45;3.67;;;;;;;;;;4934068;29;20135;-65
2022/08/21 03:11:24;;;;;;;3.90;3.55;;;;;;;;;;4934567;29;20082;-66
2022/08/21 03:13:50;;;;;;;4.93;3.78;;;;;;;;;;4936545;29;20495;-65
2022/08/21 03:16:18;;;;;;;4.63;3.33;;;;;;;;;;4938112;29;20070;-66
2022/08/21 03:18:45;;;;;;;4.05;3.65;;;;;;;;;;4937857;29;20051;-66
2022/08/21 03:21:12;;;;;;;4.00;3.15;;;;;;;;;;4921010;29;20051;-66
2022/08/21 03:23:41;;;;;;;5.07;3.80;;;;;;;;;;4937761;29;20052;-65
2022/08/21 03:26:10;;;;;;;5.30;3.78;;;;;;;;;;4937951;29;20103;-65
2022/08/21 03:28:37;;;;;;;4.78;3.10;;;;;;;;;;4937849;29;20047;-66
2022/08/21 03:31:05;;;;;;;3.75;3.45;;;;;;;;;;4937733;29;20062;-66
2022/08/21 03:33:32;;;;;;;3.58;3.28;;;;;;;;;;4937576;29;20052;-66
2022/08/21 03:36:05;;;;;;;4.57;3.78;;;;;;;;;;4937675;29;20490;-66
2022/08/21 03:38:32;;;;;;;;;;;;;;;;;;4938129;29;20052;-66
2022/08/21 03:41:00;;;;;;;3.83;3.42;;;;;;;;;;4937457;29;19927;-66
2022/08/21 03:43:27;;;;;;;3.90;3.60;;;;;;;;;;4937549;29;20074;-66
2022/08/21 03:45:58;;;;;;;4.60;3.72;;;;;;;;;;4937850;29;20058;-66
2022/08/21 03:48:25;;;;;;;4.88;4.07;;;;;;;;;;4937197;29;20051;-66
2022/08/21 03:50:52;;;;;;;4.93;3.63;;;;;;;;;;4937433;29;20059;-66
2022/08/21 03:53:18;;;;;;;5.57;3.75;;;;;;;;;;4937267;29;20059;-66
2022/08/21 03:55:46;;;;;;;4.95;4.30;;;;;;;;;;4937566;29;20062;-66
2022/08/21 03:58:14;;;;;;;6.20;4.32;;;;;;;;;;4937330;29;20074;-66
2022/08/21 04:00:43;;;;;;;3.90;3.47;;;;;;;;;;4937208;29;20051;-66
2022/08/21 04:03:10;;;;;;;4.65;3.80;;;;;;;;;;4937137;29;20095;-66
2022/08/21 04:05:37;;;;;;;4.10;3.75;;;;;;;;;;4937553;29;20059;-66
2022/08/21 04:08:05;;;;;;;4.65;3.85;;;;;;;;;;4937150;29;20059;-66
2022/08/21 04:10:35;;;;;;;5.50;3.97;;;;;;;;;;4938452;29;20048;-66
2022/08/21 04:13:03;;;;;;;3.75;3.45;;;;;;;;;;4938130;29;20052;-66
2022/08/21 04:15:30;;;;;;;3.63;3.30;;;;;;;;;;4937925;29;20052;-66
2022/08/21 04:17:56;;;;;;;4.32;3.92;;;;;;;;;;4937691;29;20055;-66
2022/08/21 04:20:23;;;;;;;5.07;3.50;;;;;;;;;;4937795;29;20071;-66
2022/08/21 04:22:50;;;;;;;4.50;4.10;;;;;;;;;;4937756;29;20056;-66
2022/08/21 04:25:18;;;;;;;4.70;4.10;;;;;;;;;;4936794;29;20427;-66
2022/08/21 04:27:45;;;;;;;4.60;4.00;;;;;;;;;;4937894;29;20479;-66
2022/08/21 04:30:13;;;;;;;6.03;4.38;;;;;;;;;;4937702;29;20055;-66
2022/08/21 04:32:50;;;;;;;4.07;3.53;;;;;;;;;;4938149;29;20058;-66
2022/08/21 04:35:20;;;;;;;4.47;3.97;;;;;;;;;;4937717;29;20427;-66
2022/08/21 04:37:46;;;;;;;5.32;4.18;;;;;;;;;;4937708;29;20547;-66
2022/08/21 04:40:15;;;;;;;4.95;3.90;;;;;;;;;;4920427;29;20543;-66
2022/08/21 04:42:49;;;;;;;6.75;4.30;;;;;;;;;;4937565;29;20419;-66
2022/08/21 04:45:21;;;;;;;4.40;4.00;;;;;;;;;;4937484;29;20071;-66
2022/08/21 04:47:53;;;;;;;6.60;3.85;;;;;;;;;;4937466;29;20522;-66
2022/08/21 04:50:22;;;;;;;4.65;4.18;;;;;;;;;;4937442;29;20060;-66
2022/08/21 04:52:49;;;;;;;4.53;4.00;;;;;;;;;;4920598;29;20439;-66
2022/08/21 04:55:16;;;;;;;4.63;4.20;;;;;;;;;;4920459;29;20051;-66
2022/08/21 04:57:43;;;;;;;7.07;4.40;;;;;;;;;;4937388;29;20060;-66
2022/08/21 05:00:18;;;;;;;5.45;4.20;;;;;;;;;;4937184;29;20061;-66
2022/08/21 05:02:47;;;;;;;5.43;4.60;;;;;;;;;;4920683;29;20467;-66
2022/08/21 05:05:15;;;;;;;4.32;4.00;;;;;;;;;;4937049;29;20131;-66
2022/08/21 05:07:43;;;;;;;6.88;5.05;;;;;;;;;;4919867;29;20078;-66
2022/08/21 05:10:10;;;;;;;5.90;5.07;;;;;;;;;;4920220;29;20047;-66
2022/08/21 05:12:41;;;;;;;6.38;5.13;;;;;;;;;;4920235;29;20059;-66
2022/08/21 05:15:09;;;;;;;6.05;5.45;;;;;;;;;;4920000;29;20067;-66
2022/08/21 05:17:39;;;;;;;6.00;5.45;;;;;;;;;;4936820;29;20055;-66
2022/08/21 05:20:07;;;;;;;5.57;4.45;;;;;;;;;;4936240;29;20053;-66
2022/08/21 05:22:34;;;;;;;6.10;4.93;;;;;;;;;;4936496;29;20074;-66
2022/08/21 05:25:00;;;;;;;5.38;4.88;;;;;;;;;;4920213;29;20047;-66
2022/08/21 05:27:29;;;;;;;5.47;4.97;;;;;;;;;;4936324;29;20515;-66
2022/08/21 05:29:58;;;;;;;5.40;4.90;;;;;;;;;;4936329;29;20052;-66
2022/08/21 05:32:25;;;;;;;5.32;4.82;;;;;;;;;;4936909;29;20052;-66
2022/08/21 05:34:51;;;;;;;5.50;4.55;;;;;;;;;;4936331;29;20063;-66
2022/08/21 05:37:18;;;;;;;5.30;4.80;;;;;;;;;;4936381;29;20419;-66
2022/08/21 05:39:45;;;;;;;4.63;4.25;;;;;;;;;;4936171;29;20063;-66
2022/08/21 05:42:31;;;;;;;4.72;4.32;;;;;;;;;;4937152;29;20079;-66
2022/08/21 05:44:58;;;;;;;6.38;4.95;;;;;;;;;;4936185;29;20058;-66
2022/08/21 05:47:25;;;;;;;4.45;4.05;;;;;;;;;;4936164;29;20055;-66
2022/08/21 05:49:51;;;;;;;5.53;3.85;;;;;;;;;;4936292;29;20044;-66
2022/08/21 05:52:20;;;;;;;4.85;4.47;;;;;;;;;;4935748;29;20051;-66
2022/08/21 05:54:46;;;;;;;4.70;4.25;;;;;;;;;;4936163;29;20063;-66
2022/08/21 05:57:13;;;;;;;4.32;4.03;;;;;;;;;;4936277;29;20056;-66
2022/08/21 05:59:40;;;;;;;4.70;4.30;;;;;;;;;;4935628;29;20078;-66
2022/08/21 06:02:08;;;;;;;5.10;4.20;;;;;;;;;;4935812;29;20059;-66
2022/08/21 06:04:38;;;;;;;4.18;3.78;;;;;;;;;;4936211;29;20048;-66
2022/08/21 06:07:05;;;;;;;4.88;4.10;;;;;;;;;;4936032;29;20052;-66
2022/08/21 06:09:32;;;;;;;4.50;4.10;;;;;;;;;;4935500;29;20440;-65
2022/08/21 06:12:02;;;;;;;5.85;3.53;;;;;;;;;;4935966;29;20055;-65
2022/08/21 06:14:30;;;;;;;5.60;3.78;;;;;;;;;;4919429;29;20055;-66
2022/08/21 06:17:05;;;;;;;4.85;3.90;;;;;;;;;;4936239;29;20051;-66
2022/08/21 06:19:32;;;;;;;4.25;3.85;;;;;;;;;;4936194;29;20078;-66
2022/08/21 06:21:58;;;;;;;4.53;3.50;;;;;;;;;;4935851;29;20405;-66
2022/08/21 06:24:26;;;;;;;3.42;3.15;;;;;;;;;;4935561;29;20503;-66
2022/08/21 06:26:52;;;;;;;4.25;3.92;;;;;;;;;;4935206;29;20052;-66
2022/08/21 06:29:19;;;;;;;3.85;3.55;;;;;;;;;;4935662;29;20396;-66
2022/08/21 06:31:47;;;;;;;4.07;3.67;;;;;;;;;;4935620;29;20055;-66
2022/08/21 06:34:14;;;;;;;4.07;3.65;;;;;;;;;;4935299;29;20047;-66
2022/08/21 06:36:41;;;;;;;5.18;3.88;;;;;;;;;;4935487;29;20062;-66
2022/08/21 06:39:07;;;;;;;4.57;3.85;;;;;;;;;;4935000;29;20051;-66
2022/08/21 06:41:51;;;;;;;4.53;3.88;;;;;;;;;;4935204;29;20066;-66
2022/08/21 06:44:18;;;;;;;5.20;3.78;;;;;;;;;;4935486;29;20203;-66
2022/08/21 06:46:45;;;;;;;7.20;3.50;;;;;;;;;;4935250;29;20052;-66
2022/08/21 06:49:13;;;;;;;4.10;3.70;;;;;;;;;;4940893;29;20103;-66
2022/08/21 06:51:46;;;;;;;4.07;3.67;;;;;;;;;;4941303;29;20058;-66
2022/08/21 06:54:13;;;;;;;4.00;3.58;;;;;;;;;;4941695;29;20051;-66
2022/08/21 06:56:40;;;;;;;4.20;3.78;;;;;;;;;;4940356;29;20056;-66
2022/08/21 06:59:06;;;;;;;5.68;4.25;;;;;;;;;;4941735;29;20055;-66
2022/08/21 07:01:33;;;;;;;6.45;4.00;;;;;;;;;;4941522;29;20058;-66
2022/08/21 07:04:00;;;;;;;6.75;3.63;;;;;;;;;;4941444;29;20063;-66
2022/08/21 07:06:26;;;;;;;4.82;3.70;;;;;;;;;;4941684;29;20340;-66
2022/08/21 07:08:54;;;;;;;4.18;3.80;;;;;;;;;;4940945;29;20047;-66
2022/08/21 07:11:25;;;;;;;4.07;3.65;;;;;;;;;;4941433;29;20423;-66
2022/08/21 07:13:53;;;;;;;6.80;3.17;;;;;;;;;;4941015;29;20063;-64
2022/08/21 07:16:21;;;;;;;4.00;3.50;;;;;;;;;;4941014;29;20052;-64
2022/08/21 07:18:48;;;;;;;5.25;3.85;;;;;;;;;;4940769;29;20054;-64
2022/08/21 07:21:15;;;;;;;6.93;2.80;;;;;;;;;;4938730;29;20475;-65
2022/08/21 07:23:49;;;;;;;7.80;3.40;;;;;;;;;;4939083;29;20102;-65
2022/08/21 07:26:20;;;;;;;6.25;3.67;;;;;;;;;;4939422;29;20055;-65
2022/08/21 07:28:48;;;;;;;8.90;3.35;;;;;;;;;;4938955;29;20063;-64
2022/08/21 07:31:16;;;;;;;5.38;2.90;;;;;;;;;;4939181;29;20075;-64
2022/08/21 07:33:43;;;;;;;6.82;3.17;;;;;;;;;;4938662;29;20059;-65
2022/08/21 07:36:10;;;;;;;8.80;3.28;;;;;;;;;;4939280;29;20059;-64
2022/08/21 07:38:37;;;;;;;3.58;2.90;;;;;;;;;;4938830;29;20058;-64
2022/08/21 07:41:16;;;;;;;7.00;3.20;;;;;;;;;;4939046;29;20051;-64
2022/08/21 07:43:44;;;;;;;5.22;3.40;;;;;;;;;;4938985;29;20059;-64
2022/08/21 07:46:12;;;;;;;5.68;3.78;;;;;;;;;;4921980;29;20059;-64
2022/08/21 07:48:39;;;;;;;4.53;3.25;;;;;;;;;;4939563;29;20055;-65
2022/08/21 07:51:07;;;;;;;5.88;3.58;;;;;;;;;;4939959;29;20484;-64
2022/08/21 07:53:35;;;;;;;8.52;4.07;;;;;;;;;;4940578;29;20064;-65
2022/08/21 07:56:03;;;;;;;5.57;3.08;;;;;;;;;;4939984;29;20055;-64
2022/08/21 07:58:31;;;;;;;4.40;2.95;;;;;;;;;;4938485;29;20055;-64
2022/08/21 08:00:59;;;;;;;7.10;3.28;;;;;;;;;;4934841;29;20447;-64
2022/08/21 08:03:26;;;;;;;5.93;3.10;;;;;;;;;;4936097;29;20055;-64
2022/08/21 08:05:55;;;;;;;7.75;3.67;;;;;;;;;;4935988;29;20051;-64
2022/08/21 08:08:21;;;;;;;6.95;4.43;;;;;;;;;;4936148;29;20059;-64
2022/08/21 08:10:49;;;;;;;10.07;4.25;;;;;;;;;;4936116;29;20059;-65
2022/08/21 08:13:16;;;;;;;8.52;4.18;;;;;;;;;;4935576;29;20051;-65
2022/08/21 08:15:43;;;;;;;6.65;3.88;;;;;;;;;;4919093;29;20524;-65
2022/08/21 08:18:09;;;;;;;7.35;3.47;;;;;;;;;;4935099;29;20051;-67
2022/08/21 08:20:36;;;;;;;7.80;4.00;;;;;;;;;;4918405;29;20052;-69
2022/08/21 08:23:03;;;;;;;6.65;3.95;;;;;;;;;;4894544;29;20139;-68
2022/08/21 08:25:30;;;;;;;8.63;4.40;;;;;;;;;;4943326;29;20047;-69
2022/08/21 08:28:04;;;;;;;8.95;4.38;;;;;;;;;;4941086;29;20110;-67
2022/08/21 08:30:44;;;;;;;5.97;3.50;;;;;;;;;;4941845;29;20055;-70
2022/08/21 08:33:11;;;;;;;5.40;3.40;;;;;;;;;;4945350;28;20056;-70
2022/08/21 08:35:37;;;;;;;6.63;3.60;;;;;;;;;;4938249;29;20051;-70
2022/08/21 08:38:05;;;;;;;8.73;3.80;;;;;;;;;;4945399;29;20047;-67
2022/08/21 08:40:52;;;;;;;7.80;4.05;;;;;;;;;;4946440;29;20051;-67
2022/08/21 08:43:19;;;;;;;5.38;3.58;;;;;;;;;;4925526;29;20518;-77
2022/08/21 08:45:50;;;;;;;8.80;4.50;;;;;;;;;;4930156;29;20604;-69
2022/08/21 08:48:46;;;;;;;9.90;4.72;;;;;;;;;;4916371;29;20074;-73
2022/08/21 08:51:26;;;;;;;6.25;4.00;;;;;;;;;;4911344;29;20065;-73
2022/08/21 08:53:59;;;;;;;6.40;4.75;;;;;;;;;;4914995;29;20411;-69
2022/08/21 08:56:31;;;;;;;7.85;3.78;;;;;;;;;;4950401;29;20062;-72
2022/08/21 08:59:09;;;;;;;8.40;3.95;;;;;;;;;;4902117;29;20051;-70
2022/08/21 09:01:36;;;;;;;6.95;4.15;;;;;;;;;;4913346;29;20054;-77
2022/08/21 09:04:28;;;;;;;7.00;4.05;;;;;;;;;;4906397;29;20043;-75
2022/08/21 09:07:16;;;;;;;6.45;3.83;;;;;;;;;;4916192;29;20106;-68
2022/08/21 09:10:00;;;;;;;6.00;3.70;;;;;;;;;;4915573;29;20103;-73
2022/08/21 09:12:36;;;;;;;7.43;4.18;;;;;;;;;;4914510;29;20415;-70
2022/08/21 09:15:29;;;;;;;6.43;3.63;;;;;;;;;;4943020;29;20410;-72
2022/08/21 09:18:16;;;;;;;6.15;3.53;;;;;;;;;;4911229;29;20434;-70
2022/08/21 09:21:02;;;;;;;5.20;3.75;;;;;;;;;;4946117;29;20059;-72
2022/08/21 09:24:11;;;;;;;6.07;3.05;;;;;;;;;;4943228;29;20047;-72
2022/08/21 09:27:48;;;;;;;6.43;3.45;;;;;;;;;;4915599;29;20047;-70
2022/08/21 09:30:30;;;;;;;5.07;3.50;;;;;;;;;;4878979;29;20132;-73
2022/08/21 09:32:59;;;;;;;5.15;3.42;;;;;;;;;;4846362;29;20065;-73
2022/08/21 09:35:57;;;;;;;4.90;3.30;;;;;;;;;;4913281;29;20055;-72
2022/08/21 09:38:56;;;;;;;4.50;3.40;;;;;;;;;;4924552;29;20054;-75
2022/08/21 09:41:33;;;;;;;6.50;3.35;;;;;;;;;;4928394;29;20059;-69
2022/08/21 09:44:00;;;;;;;5.05;2.80;;;;;;;;;;4945918;28;20525;-67
2022/08/21 09:46:28;;;;;;;4.68;2.88;;;;;;;;;;4947379;29;20071;-72
2022/08/21 09:49:01;;;;;;;4.45;2.60;;;;;;;;;;4946455;29;20138;-72
2022/08/21 09:51:31;;;;;;;6.25;3.40;;;;;;;;;;4903985;29;20074;-73
2022/08/21 09:54:06;;;;;;;4.25;3.10;;;;;;;;;;4897627;29;20400;-73
2022/08/21 09:59:40;;;;;;;8.77;3.20;;;;;;;;;;4947025;29;20047;-67
2022/08/21 10:02:23;;;;;;;4.55;2.63;;;;;;;;;;4945944;29;20059;-67
2022/08/21 10:04:52;;;;;;;5.95;3.03;;;;;;;;;;4942250;29;20503;-65
2022/08/21 10:07:22;;;;;;;6.15;3.00;;;;;;;;;;4946028;29;20051;-64
2022/08/21 10:10:16;;;;;;;5.97;2.78;;;;;;;;;;4944502;29;20047;-65
2022/08/21 10:13:14;;;;;;;4.93;2.63;;;;;;;;;;4945413;28;20060;-72
2022/08/21 10:15:56;;;;;;;7.57;4.03;;;;;;;;;;4934548;29;20047;-73
2022/08/21 10:18:27;;;;;;;6.05;2.85;;;;;;;;;;4884927;29;20055;-76
2022/08/21 10:21:19;;;;;;;10.38;2.97;;;;;;;;;;4907822;29;20052;-72
2022/08/21 10:23:55;;;;;;;5.97;2.80;;;;;;;;;;4921556;29;20062;-65
2022/08/21 10:27:19;;;;;;;7.63;3.08;;;;;;;;;;4945530;29;20307;-65
2022/08/21 10:30:08;;;;;;;5.32;3.03;;;;;;;;;;4877220;29;20056;-65
2022/08/21 10:32:44;;;;;;;8.00;3.35;;;;;;;;;;4860027;29;20065;-65
2022/08/21 10:35:13;;;;;;;5.68;2.60;;;;;;;;;;4933638;29;20067;-68
2022/08/21 10:37:52;;;;;;;6.47;2.40;;;;;;;;;;4916902;29;20051;-67
2022/08/21 10:40:26;;;;;;;4.30;3.17;;;;;;;;;;4937083;29;20040;-68
2022/08/21 10:43:00;;;;;;;7.13;2.35;;;;;;;;;;4925658;29;20055;-68
2022/08/21 10:45:48;;;;;;;5.50;2.90;;;;;;;;;;4916894;29;20064;-67
2022/08/21 10:48:23;;;;;;;4.32;2.33;;;;;;;;;;4938150;29;20055;-67
2022/08/21 10:50:55;;;;;;;8.77;3.03;;;;;;;;;;4924881;29;20526;-68
2022/08/21 10:53:42;;;;;;;6.18;2.80;;;;;;;;;;4914406;29;20676;-67
2022/08/21 10:56:21;;;;;;;8.35;2.45;;;;;;;;;;4915897;29;20058;-73
2022/08/21 10:59:00;;;;;;;8.02;2.60;;;;;;;;;;4909798;29;20048;-68
2022/08/21 11:01:57;;;;;;;7.32;2.80;;;;;;;;;;4929406;29;20406;-73
2022/08/21 11:04:40;;;;;;;6.97;2.90;;;;;;;;;;4914527;29;20051;-73
2022/08/21 11:07:32;;;;;;;4.65;2.15;;;;;;;;;;4890760;29;20056;-73
2022/08/21 11:13:32;;;;;;;5.53;2.78;;;;;;;;;;4939828;28;20114;-74
2022/08/21 11:16:03;;;;;;;4.55;2.58;;;;;;;;;;4919473;29;20052;-73
2022/08/21 11:18:36;;;;;;;4.85;2.58;;;;;;;;;;4915295;29;20062;-73
2022/08/21 11:21:33;;;;;;;5.85;2.80;;;;;;;;;;4911348;29;20047;-71
2022/08/21 11:24:13;;;;;;;4.15;2.70;;;;;;;;;;4946838;28;20033;-71
2022/08/21 11:27:00;;;;;;;7.13;2.83;;;;;;;;;;4939626;28;20027;-72
2022/08/21 11:29:36;;;;;;;5.57;2.78;;;;;;;;;;4919537;29;20051;-72
2022/08/21 11:32:39;;;;;;;5.85;2.67;;;;;;;;;;4888574;28;20055;-71
2022/08/21 11:35:20;;;;;;;5.93;2.75;;;;;;;;;;4945874;28;20048;-72
2022/08/21 11:38:09;;;;;;;6.43;2.95;;;;;;;;;;4944886;29;20063;-73
2022/08/21 11:40:55;;;;;;;4.90;2.50;;;;;;;;;;4934292;29;20067;-73
2022/08/21 11:43:46;;;;;;;3.58;2.30;;;;;;;;;;4941796;23;20048;-73
2022/08/21 11:47:04;;;;;;;6.35;2.78;;;;;;;;;;4897332;29;20678;-73
2022/08/21 11:50:22;;;;;;;4.45;2.78;;;;;;;;;;4918915;29;20512;-73
2022/08/21 11:53:39;;;;;;;5.75;2.35;;;;;;;;;;4901268;29;20060;-73
2022/08/21 11:56:46;;;;;;;;;;;;;;;;;;;;;
2022/08/21 11:59:20;;;;;;;5.40;2.55;;;;;;;;;;4883848;29;20056;-71
2022/08/21 12:01:50;;;;;;;5.05;2.42;;;;;;;;;;4910935;29;20074;-71
2022/08/21 12:04:28;;;;;;;6.32;2.20;;;;;;;;;;4898104;29;20162;-73
2022/08/21 12:10:35;;;;;;;2.70;2.05;;;;;;;;;;4891815;29;20501;-66
2022/08/21 12:13:12;;;;;;;4.85;3.03;;;;;;;;;;4895229;29;20523;-67
2022/08/21 12:15:38;;;;;;;6.00;2.35;;;;;;;;;;4897747;29;20055;-68
2022/08/21 12:18:31;;;;;;;4.05;2.40;;;;;;;;;;4915649;29;20063;-68
2022/08/21 12:21:02;;;;;;;5.32;2.10;;;;;;;;;;4916105;29;20408;-67
2022/08/21 12:24:00;;;;;;;4.80;2.53;;;;;;;;;;4917897;29;20059;-68
2022/08/21 12:26:31;;;;;;;3.70;2.20;;;;;;;;;;4916994;29;20300;-68
2022/08/21 12:29:25;;;;;;;5.38;2.00;;;;;;;;;;4916489;29;20052;-68
2022/08/21 12:31:59;;;;;;;4.60;2.35;;;;;;;;;;4900203;29;20532;-68
2022/08/21 12:34:36;;;;;;;5.57;2.10;;;;;;;;;;4914687;29;20056;-67
2022/08/21 12:37:25;;;;;;;2.30;1.77;;;;;;;;;;4916874;29;20052;-67
2022/08/21 12:39:52;;;;;;;4.18;2.10;;;;;;;;;;4872617;29;20135;-67
2022/08/21 12:42:41;;;;;;;4.45;2.00;;;;;;;;;;4899504;29;20139;-67
2022/08/21 12:45:38;;;;;;;6.13;2.53;;;;;;;;;;4914548;29;20523;-67
2022/08/21 12:48:21;;;;;;;3.38;1.95;;;;;;;;;;4893734;29;20059;-67
2022/08/21 12:50:53;;;;;;;6.38;2.95;;;;;;;;;;4900416;29;20059;-68
2022/08/21 12:53:32;;;;;;;4.68;2.30;;;;;;;;;;4898501;29;20070;-68
2022/08/21 12:56:04;;;;;;;3.08;2.20;;;;;;;;;;4912541;29;20052;-68
2022/08/21 12:58:31;;;;;;;4.03;2.13;;;;;;;;;;4915702;29;20048;-68
2022/08/21 13:01:05;;;;;;;6.05;2.47;;;;;;;;;;4916281;29;20063;-68
2022/08/21 13:03:35;;;;;;;3.58;2.33;;;;;;;;;;4914390;29;20131;-66
2022/08/21 13:06:03;;;;;;;6.32;2.20;;;;;;;;;;4898119;29;20062;-68
2022/08/21 13:08:30;;;;;;;3.33;1.90;;;;;;;;;;4879174;29;20567;-68
2022/08/21 13:11:04;;;;;;;4.38;2.35;;;;;;;;;;4895920;29;20040;-69
2022/08/21 13:13:40;;;;;;;5.40;2.38;;;;;;;;;;4899268;29;20108;-65
2022/08/21 13:16:23;;;;;;;4.05;2.08;;;;;;;;;;4895703;29;20052;-70
2022/08/21 13:19:03;;;;;;;3.65;2.28;;;;;;;;;;4897783;29;20059;-69
2022/08/21 13:21:35;;;;;;;3.75;2.35;;;;;;;;;;4914722;29;20070;-67
2022/08/21 13:24:20;;;;;;;3.47;2.30;;;;;;;;;;4897436;29;20056;-67
2022/08/21 13:27:22;;;;;;;4.53;2.25;;;;;;;;;;4914124;29;20075;-69
2022/08/21 13:30:00;;;;;;;3.33;2.08;;;;;;;;;;4912578;29;20056;-68
2022/08/21 13:32:27;;;;;;;3.50;1.70;;;;;;;;;;4899830;29;20127;-69
2022/08/21 13:34:54;;;;;;;3.88;2.25;;;;;;;;;;4897009;29;20460;-69
2022/08/21 13:37:21;;;;;;;3.97;2.30;;;;;;;;;;4915826;29;20071;-69
2022/08/21 13:39:53;;;;;;;2.55;1.80;;;;;;;;;;4897944;29;20047;-70
2022/08/21 13:42:20;;;;;;;5.32;2.35;;;;;;;;;;4911963;29;20508;-68
2022/08/21 13:44:47;;;;;;;3.65;1.88;;;;;;;;;;4896246;29;20048;-68
2022/08/21 13:47:15;;;;;;;4.90;2.20;;;;;;;;;;4914390;29;20520;-68
2022/08/21 13:49:45;;;;;;;3.80;2.38;;;;;;;;;;4881266;29;20052;-69
2022/08/21 13:52:25;;;;;;;4.53;2.05;;;;;;;;;;4913459;29;20060;-69
2022/08/21 13:54:58;;;;;;;6.45;2.33;;;;;;;;;;4912124;29;20048;-69
2022/08/21 13:57:28;;;;;;;6.22;2.80;;;;;;;;;;4894681;29;20058;-69
2022/08/21 14:00:28;;;;;;;3.75;2.20;;;;;;;;;;4911561;29;20064;-68
2022/08/21 14:03:08;;;;;;;2.83;1.98;;;;;;;;;;4912923;29;20066;-68
2022/08/21 14:05:38;;;;;;;2.53;1.90;;;;;;;;;;4896668;29;20048;-68
2022/08/21 14:08:19;;;;;;;1.70;1.55;;;;;;;;;;4909106;29;20052;-68
2022/08/21 14:10:50;;;;;;;2.22;1.80;;;;;;;;;;4897591;29;20146;-68
2022/08/21 14:13:43;;;;;;;3.42;2.00;;;;;;;;;;4889957;29;20135;-68
2022/08/21 14:16:16;;;;;;;2.65;1.90;;;;;;;;;;4910247;29;20405;-68
2022/08/21 14:18:47;;;;;;;4.60;2.15;;;;;;;;;;4913859;29;20051;-67
2022/08/21 14:21:14;;;;;;;4.57;2.10;;;;;;;;;;4913733;29;20055;-67
2022/08/21 14:23:41;;;;;;;4.85;2.22;;;;;;;;;;4879998;29;20532;-66
2022/08/21 14:26:08;;;;;;;3.15;2.03;;;;;;;;;;4913149;29;20492;-67
2022/08/21 14:28:39;;;;;;;2.55;1.58;;;;;;;;;;4892436;29;20064;-66
2022/08/21 14:31:19;;;;;;;;;;;;;;;;;;4892455;29;20496;-66
2022/08/21 14:33:46;;;;;;;2.97;1.98;;;;;;;;;;4895651;29;19946;-66
2022/08/21 14:36:15;;;;;;;4.10;1.95;;;;;;;;;;4887929;29;20059;-67
2022/08/21 14:38:41;;;;;;;4.13;1.90;;;;;;;;;;4913238;29;20058;-67
2022/08/21 14:41:18;;;;;;;3.33;2.13;;;;;;;;;;4895565;29;20040;-66
2022/08/21 14:43:45;;;;;;;5.13;2.33;;;;;;;;;;4905636;29;20052;-67
2022/08/21 14:46:13;;;;;;;4.75;2.40;;;;;;;;;;4895448;29;20063;-67
2022/08/21 14:48:40;;;;;;;3.67;2.20;;;;;;;;;;4881022;29;20078;-66
2022/08/21 14:51:06;;;;;;;3.65;2.22;;;;;;;;;;4914226;29;20056;-66
2022/08/21 14:53:33;;;;;;;3.80;1.85;;;;;;;;;;4913692;29;20048;-66
2022/08/21 14:56:06;;;;;;;3.95;2.05;;;;;;;;;;4912508;29;20064;-66
2022/08/21 14:58:39;;;;;;;2.53;2.10;;;;;;;;;;4914789;29;20062;-66
2022/08/21 15:01:08;;;;;;;5.57;2.40;;;;;;;;;;4877234;29;20044;-66
2022/08/21 15:03:34;;;;;;;3.80;2.20;;;;;;;;;;4881649;29;20083;-66
2022/08/21 15:06:02;;;;;;;3.88;1.98;;;;;;;;;;4915277;29;20051;-66
2022/08/21 15:08:29;;;;;;;4.82;2.25;;;;;;;;;;4914005;29;20082;-66
2022/08/21 15:10:55;;;;;;;4.90;2.28;;;;;;;;;;4919076;29;20059;-65
2022/08/21 15:13:38;;;;;;;4.03;1.92;;;;;;;;;;4890656;29;20048;-65
2022/08/21 15:16:05;;;;;;;4.57;2.28;;;;;;;;;;4918556;29;20048;-67
2022/08/21 15:18:31;;;;;;;2.92;2.08;;;;;;;;;;4918452;29;20071;-67
2022/08/21 15:20:58;;;;;;;3.45;2.00;;;;;;;;;;4918088;29;20052;-67
2022/08/21 15:23:25;;;;;;;3.70;2.28;;;;;;;;;;4919126;29;20079;-66
2022/08/21 15:25:51;;;;;;;4.10;2.70;;;;;;;;;;4917417;29;20052;-66
2022/08/21 15:28:20;;;;;;;3.53;1.90;;;;;;;;;;4918439;29;20052;-67